Terminal Aerodrome Forecast
Issued by NWS

Home | Current Version | Previous Version | Text Only | Print | Product List | Glossary On
Versions: 1 2 3 4 5 6 7 8 9 10 11 12 13 14 15
323
FTUS44 KLZK 200520
TAFPBF
TAF
KPBF 200520Z 2006/2106 20006KT P6SM OVC005
      TEMPO 2006/2010 5SM BR OVC002
     FM201000 19004KT 4SM BR OVC008
      TEMPO 2010/2014 2SM BR OVC005
     FM201600 19008KT P6SM BKN025
     FM201900 21010KT P6SM BKN250=

USA.gov is the U.S. government's official web portal to all federal, state and local government web resources and services.